createdAt,value
2017-03-11T00:00:09.316Z,19.59
2017-03-11T00:01:20.198Z,19.63
2017-03-11T00:02:30.916Z,19.55
2017-03-11T00:03:41.785Z,19.52
2017-03-11T00:04:52.644Z,19.53
2017-03-11T00:06:03.127Z,19.55
2017-03-11T00:07:13.162Z,19.59
2017-03-11T00:08:24.253Z,19.55
2017-03-11T00:09:35.114Z,19.59
2017-03-11T00:10:45.978Z,19.53
2017-03-11T00:11:56.461Z,19.53
2017-03-11T00:13:07.328Z,19.49
2017-03-11T00:14:18.041Z,19.57
2017-03-11T00:15:28.099Z,19.56
2017-03-11T00:16:38.954Z,19.53
2017-03-11T00:17:49.415Z,19.62
2017-03-11T00:18:59.497Z,19.57
2017-03-11T00:20:10.221Z,19.59
2017-03-11T00:21:20.283Z,19.55
2017-03-11T00:22:30.332Z,19.55
2017-03-11T00:23:40.374Z,19.6
2017-03-11T00:24:51.245Z,19.55
2017-03-11T00:26:01.533Z,19.45
2017-03-11T00:27:12.410Z,19.52
2017-03-11T00:28:23.283Z,19.57
2017-03-11T00:29:33.734Z,19.55
2017-03-11T00:30:44.613Z,19.52
2017-03-11T00:31:55.826Z,19.56
2017-03-11T00:33:06.689Z,19.55
2017-03-11T00:34:17.254Z,19.57
2017-03-11T00:35:27.753Z,19.56
2017-03-11T00:36:38.218Z,19.49
2017-03-11T00:37:49.359Z,19.53
2017-03-11T00:39:00.230Z,19.59
2017-03-11T00:40:10.671Z,19.55
2017-03-11T00:41:21.517Z,19.59
2017-03-11T00:42:32.377Z,19.57
2017-03-11T00:43:43.629Z,19.63
2017-03-11T00:44:54.487Z,19.53
2017-03-11T00:46:04.918Z,19.55
2017-03-11T00:47:15.369Z,19.55
2017-03-11T00:48:26.208Z,19.49
2017-03-11T00:49:36.589Z,19.52
2017-03-11T00:50:47.056Z,19.57
2017-03-11T00:51:57.911Z,19.59
2017-03-11T00:53:08.618Z,19.57
2017-03-11T00:54:19.072Z,19.59
2017-03-11T00:55:29.478Z,19.52
2017-03-11T00:56:40.330Z,19.6
2017-03-11T00:57:50.774Z,19.55
2017-03-11T00:59:01.642Z,19.49
2017-03-11T01:00:12.086Z,19.55
2017-03-11T01:01:23.315Z,19.56
2017-03-11T01:02:34.287Z,19.49
2017-03-11T01:03:45.178Z,19.59
2017-03-11T01:04:56.042Z,19.57
2017-03-11T01:06:06.499Z,19.57
2017-03-11T01:07:17.618Z,19.48
2017-03-11T01:08:28.483Z,19.53
2017-03-11T01:09:39.329Z,19.59
2017-03-11T01:10:49.766Z,19.55
2017-03-11T01:12:00.611Z,19.49
2017-03-11T01:13:11.708Z,19.59
2017-03-11T01:14:22.567Z,19.59
2017-03-11T01:15:33.426Z,19.56
2017-03-11T01:16:43.889Z,19.56
2017-03-11T01:17:54.787Z,19.53
2017-03-11T01:19:05.898Z,19.41
2017-03-11T01:20:16.339Z,19.52
2017-03-11T01:21:26.784Z,19.52
2017-03-11T01:22:37.639Z,19.53
2017-03-11T01:23:48.487Z,19.42
2017-03-11T01:24:59.613Z,19.55
2017-03-11T01:26:10.452Z,19.55
2017-03-11T01:27:21.312Z,19.53
2017-03-11T01:28:31.353Z,19.47
2017-03-11T01:29:41.840Z,19.41
2017-03-11T01:30:52.952Z,19.47
2017-03-11T01:32:03.811Z,19.53
2017-03-11T01:33:14.667Z,19.57
2017-03-11T01:34:25.135Z,19.53
2017-03-11T01:35:36.010Z,19.52
2017-03-11T01:36:47.107Z,19.55
2017-03-11T01:37:57.952Z,19.49
2017-03-11T01:39:08.777Z,19.47
2017-03-11T01:40:19.622Z,19.48
2017-03-11T01:41:30.080Z,19.44
2017-03-11T01:42:40.784Z,19.52
2017-03-11T01:43:51.651Z,19.48
2017-03-11T01:45:02.634Z,19.48
2017-03-11T01:46:12.678Z,19.44
2017-03-11T01:47:23.561Z,19.48
2017-03-11T01:48:34.663Z,19.48
2017-03-11T01:49:45.500Z,19.52
2017-03-11T01:50:56.344Z,19.48
2017-03-11T01:52:07.197Z,19.48
2017-03-11T01:53:17.631Z,19.45
2017-03-11T01:54:28.347Z,19.42
2017-03-11T01:55:38.828Z,19.38
2017-03-11T01:56:49.676Z,19.41
2017-03-11T01:58:00.541Z,19.39
2017-03-11T01:59:10.988Z,19.48
2017-03-11T02:00:21.674Z,19.48
2017-03-11T02:01:32.519Z,19.52
2017-03-11T02:02:43.388Z,19.47
2017-03-11T02:03:54.259Z,19.44
2017-03-11T02:05:04.694Z,19.44
2017-03-11T02:06:14.992Z,19.52
2017-03-11T02:07:25.456Z,19.56
2017-03-11T02:08:36.294Z,19.39
2017-03-11T02:09:47.143Z,19.39
2017-03-11T02:10:58.006Z,19.49
2017-03-11T02:12:08.717Z,19.45
2017-03-11T02:13:19.179Z,19.52
2017-03-11T02:14:30.045Z,19.39
2017-03-11T02:15:40.912Z,19.48
2017-03-11T02:16:51.794Z,19.49
2017-03-11T02:18:02.534Z,19.47
2017-03-11T02:19:13.555Z,19.38
2017-03-11T02:20:24.419Z,19.49
2017-03-11T02:21:35.296Z,19.49
2017-03-11T02:22:46.156Z,19.39
2017-03-11T02:23:56.832Z,19.41
2017-03-11T02:25:07.683Z,19.47
2017-03-11T02:26:18.544Z,19.39
2017-03-11T02:27:28.998Z,19.44
2017-03-11T02:28:38.640Z,19.49
2017-03-11T02:29:49.741Z,19.48
2017-03-11T02:31:00.211Z,19.39
2017-03-11T02:32:10.253Z,19.49
2017-03-11T02:33:20.685Z,19.44
2017-03-11T02:34:31.562Z,19.44
2017-03-11T02:35:41.867Z,19.44
2017-03-11T02:36:52.724Z,19.48
2017-03-11T02:38:03.587Z,19.48
2017-03-11T02:39:14.042Z,19.45
2017-03-11T02:40:24.485Z,19.42
2017-03-11T02:41:35.203Z,19.45
2017-03-11T02:42:46.058Z,19.44
2017-03-11T02:43:56.906Z,19.44
2017-03-11T02:45:07.769Z,19.44
2017-03-11T02:46:18.618Z,19.38
2017-03-11T02:47:29.764Z,19.45
2017-03-11T02:48:40.201Z,19.44
2017-03-11T02:49:50.671Z,19.47
2017-03-11T02:51:01.527Z,19.44
2017-03-11T02:52:11.569Z,19.42
2017-03-11T02:53:22.701Z,19.45
2017-03-11T02:54:33.148Z,19.38
2017-03-11T02:55:43.590Z,19.39
2017-03-11T02:56:54.441Z,19.42
2017-03-11T02:58:05.293Z,19.39
2017-03-11T02:59:16.041Z,19.41
2017-03-11T03:00:26.877Z,19.47
2017-03-11T03:01:37.316Z,19.42
2017-03-11T03:02:47.367Z,19.41
2017-03-11T03:03:57.815Z,19.48
2017-03-11T03:05:08.124Z,19.42
2017-03-11T03:06:19.006Z,19.45
2017-03-11T03:07:29.466Z,19.41
2017-03-11T03:08:40.304Z,19.37
2017-03-11T03:09:50.750Z,19.41
2017-03-11T03:11:01.888Z,19.42
2017-03-11T03:12:12.765Z,19.42
2017-03-11T03:13:23.222Z,19.37
2017-03-11T03:14:33.671Z,19.37
2017-03-11T03:15:44.541Z,19.41
2017-03-11T03:16:55.229Z,19.39
2017-03-11T03:18:05.716Z,19.38
2017-03-11T03:19:15.529Z,19.47
2017-03-11T03:20:25.975Z,19.37
2017-03-11T03:21:36.454Z,19.44
2017-03-11T03:22:46.733Z,19.37
2017-03-11T03:23:57.581Z,19.38
2017-03-11T03:25:08.418Z,19.34
2017-03-11T03:26:18.458Z,19.37
2017-03-11T03:27:28.886Z,19.34
2017-03-11T03:28:39.990Z,19.39
2017-03-11T03:29:50.835Z,19.39
2017-03-11T03:31:01.686Z,19.38
2017-03-11T03:32:12.522Z,19.38
2017-03-11T03:33:22.595Z,19.3
2017-03-11T03:34:33.743Z,19.34
2017-03-11T03:35:45.139Z,19.37
2017-03-11T03:36:55.589Z,19.44
2017-03-11T03:38:06.434Z,19.38
2017-03-11T03:39:16.892Z,19.41
2017-03-11T03:40:27.610Z,19.32
2017-03-11T03:41:38.045Z,19.32
2017-03-11T03:42:48.902Z,19.34
2017-03-11T03:43:59.757Z,19.39
2017-03-11T03:45:10.599Z,19.35
2017-03-11T03:46:20.914Z,19.37
2017-03-11T03:47:31.740Z,19.35
2017-03-11T03:48:42.598Z,19.38
2017-03-11T03:49:53.051Z,19.34
2017-03-11T03:51:03.910Z,19.32
2017-03-11T03:52:14.998Z,19.32
2017-03-11T03:53:25.842Z,19.34
2017-03-11T03:54:36.285Z,19.39
2017-03-11T03:55:47.142Z,19.37
2017-03-11T03:56:57.568Z,19.3
2017-03-11T03:58:08.297Z,19.37
2017-03-11T03:59:19.146Z,19.32
2017-03-11T04:00:29.575Z,19.35
2017-03-11T04:01:40.016Z,19.38
2017-03-11T04:02:50.858Z,19.41
2017-03-11T04:04:01.609Z,19.44
2017-03-11T04:05:12.048Z,19.27
2017-03-11T04:06:22.897Z,19.37
2017-03-11T04:07:33.729Z,19.38
2017-03-11T04:08:44.581Z,19.39
2017-03-11T04:09:55.687Z,19.3
2017-03-11T04:11:06.532Z,19.35
2017-03-11T04:12:16.563Z,19.42
2017-03-11T04:13:27.383Z,19.37
2017-03-11T04:14:37.447Z,19.34
2017-03-11T04:15:48.144Z,19.39
2017-03-11T04:16:58.182Z,19.42
2017-03-11T04:18:09.032Z,19.34
2017-03-11T04:19:19.895Z,19.29
2017-03-11T04:20:30.765Z,19.29
2017-03-11T04:21:41.492Z,19.29
2017-03-11T04:22:52.334Z,19.3
2017-03-11T04:24:02.378Z,19.3
2017-03-11T04:25:13.260Z,19.38
2017-03-11T04:26:23.712Z,19.34
2017-03-11T04:27:34.003Z,19.29
2017-03-11T04:28:43.660Z,19.32
2017-03-11T04:29:54.502Z,19.3
2017-03-11T04:31:04.957Z,19.29
2017-03-11T04:32:15.796Z,19.27
2017-03-11T04:33:26.500Z,19.3
2017-03-11T04:34:37.364Z,19.24
2017-03-11T04:35:47.798Z,19.32
2017-03-11T04:36:57.840Z,19.24
2017-03-11T04:38:08.325Z,19.29
2017-03-11T04:39:18.611Z,19.26
2017-03-11T04:40:28.663Z,19.26
2017-03-11T04:41:39.088Z,19.23
2017-03-11T04:42:49.574Z,19.26
2017-03-11T04:44:00.418Z,19.29
2017-03-11T04:45:11.508Z,19.23
2017-03-11T04:46:22.375Z,19.22
2017-03-11T04:47:33.264Z,19.24
2017-03-11T04:48:44.128Z,19.29
2017-03-11T04:49:54.202Z,19.23
2017-03-11T04:51:04.910Z,19.27
2017-03-11T04:52:15.767Z,19.35
2017-03-11T04:53:26.225Z,19.27
2017-03-11T04:54:37.060Z,19.32
2017-03-11T04:55:47.095Z,19.27
2017-03-11T04:56:57.799Z,19.32
2017-03-11T04:58:08.673Z,19.27
2017-03-11T04:59:18.717Z,19.32
2017-03-11T05:00:29.172Z,19.27
2017-03-11T05:01:39.226Z,19.19
2017-03-11T05:02:50.327Z,19.23
2017-03-11T05:04:01.184Z,19.27
2017-03-11T05:05:11.656Z,19.24
2017-03-11T05:06:22.515Z,19.24
2017-03-11T05:07:33.367Z,19.27
2017-03-11T05:08:44.467Z,19.27
2017-03-11T05:09:55.340Z,19.26
2017-03-11T05:11:06.200Z,19.32
2017-03-11T05:12:17.053Z,19.23
2017-03-11T05:13:27.909Z,19.29
2017-03-11T05:14:39.012Z,19.29
2017-03-11T05:15:50.133Z,19.26
2017-03-11T05:17:00.583Z,19.26
2017-03-11T05:18:11.437Z,19.26
2017-03-11T05:19:21.498Z,19.32
2017-03-11T05:20:32.615Z,19.24
2017-03-11T05:21:42.645Z,19.22
2017-03-11T05:22:53.479Z,19.3
2017-03-11T05:24:04.336Z,19.24
2017-03-11T05:25:14.778Z,19.22
2017-03-11T05:26:25.498Z,19.22
2017-03-11T05:27:35.543Z,19.26
2017-03-11T05:28:46.385Z,19.2
2017-03-11T05:29:56.416Z,19.27
2017-03-11T05:31:06.451Z,19.3
2017-03-11T05:32:17.140Z,19.24
2017-03-11T05:33:27.594Z,19.23
2017-03-11T05:34:38.030Z,19.24
2017-03-11T05:35:48.881Z,19.27
2017-03-11T05:36:58.942Z,19.23
2017-03-11T05:38:09.243Z,19.23
2017-03-11T05:39:20.093Z,19.27
2017-03-11T05:40:30.931Z,19.23
2017-03-11T05:41:41.365Z,19.26
2017-03-11T05:42:50.996Z,19.32
2017-03-11T05:44:01.684Z,19.26
2017-03-11T05:45:12.148Z,19.3
2017-03-11T05:46:22.605Z,19.27
2017-03-11T05:47:33.044Z,19.26
2017-03-11T05:48:43.092Z,19.32
2017-03-11T05:49:53.776Z,19.24
2017-03-11T05:51:04.234Z,19.32
2017-03-11T05:52:14.688Z,19.24
2017-03-11T05:53:25.139Z,19.24
2017-03-11T05:54:35.587Z,19.26
2017-03-11T05:55:46.288Z,19.26
2017-03-11T05:56:57.120Z,19.26
2017-03-11T05:58:07.962Z,19.27
2017-03-11T05:59:18.400Z,19.23
2017-03-11T06:00:28.836Z,19.32
2017-03-11T06:01:40.252Z,19.29
2017-03-11T06:02:50.713Z,19.26
2017-03-11T06:04:01.187Z,19.29
2017-03-11T06:05:12.013Z,19.35
2017-03-11T06:06:22.067Z,19.32
2017-03-11T06:07:31.952Z,19.29
2017-03-11T06:08:42.006Z,19.27
2017-03-11T06:09:52.877Z,19.29
2017-03-11T06:11:03.721Z,19.29
2017-03-11T06:12:14.573Z,19.23
2017-03-11T06:13:25.674Z,19.26
2017-03-11T06:14:36.115Z,19.24
2017-03-11T06:15:46.566Z,19.29
2017-03-11T06:16:57.449Z,19.34
2017-03-11T06:18:07.501Z,19.37
2017-03-11T06:19:17.811Z,19.24
2017-03-11T06:20:28.247Z,19.23
2017-03-11T06:21:39.091Z,19.29
2017-03-11T06:22:49.945Z,19.27
2017-03-11T06:24:00.377Z,19.29
2017-03-11T06:25:11.498Z,19.24
2017-03-11T06:26:21.962Z,19.3
2017-03-11T06:27:32.013Z,19.27
2017-03-11T06:28:42.886Z,19.27
2017-03-11T06:29:53.347Z,19.27
2017-03-11T06:31:04.469Z,19.35
2017-03-11T06:32:14.909Z,19.24
2017-03-11T06:33:25.369Z,19.22
2017-03-11T06:34:36.202Z,19.27
2017-03-11T06:35:47.078Z,19.3
2017-03-11T06:36:57.388Z,19.29
2017-03-11T06:38:07.839Z,19.26
2017-03-11T06:39:18.684Z,19.3
2017-03-11T06:40:29.571Z,19.29
2017-03-11T06:41:39.613Z,19.3
2017-03-11T06:42:50.733Z,19.24
2017-03-11T06:44:01.181Z,19.37
2017-03-11T06:45:11.651Z,19.29
2017-03-11T06:46:22.512Z,19.29
2017-03-11T06:47:32.557Z,19.27
2017-03-11T06:48:43.660Z,19.26
2017-03-11T06:49:54.502Z,19.27
2017-03-11T06:51:05.347Z,19.27
2017-03-11T06:52:15.789Z,19.26
2017-03-11T06:53:26.633Z,19.22
2017-03-11T06:54:36.934Z,19.29
2017-03-11T06:55:47.439Z,19.24
2017-03-11T06:56:58.278Z,19.23
2017-03-11T06:58:08.758Z,19.26
2017-03-11T06:59:19.609Z,19.3
2017-03-11T07:00:30.364Z,19.29
2017-03-11T07:01:41.225Z,19.3
2017-03-11T07:02:52.074Z,19.27
2017-03-11T07:04:02.542Z,19.3
2017-03-11T07:05:12.991Z,19.27
2017-03-11T07:06:24.214Z,19.29
2017-03-11T07:07:34.656Z,19.3
2017-03-11T07:08:44.760Z,19.3
2017-03-11T07:09:55.225Z,19.22
2017-03-11T07:11:05.257Z,19.34
2017-03-11T07:12:16.365Z,19.27
2017-03-11T07:13:27.257Z,19.24
2017-03-11T07:14:37.724Z,19.29
2017-03-11T07:15:48.185Z,19.27
2017-03-11T07:16:58.255Z,19.24
2017-03-11T07:18:08.953Z,19.29
2017-03-11T07:19:19.007Z,19.29
2017-03-11T07:20:29.874Z,19.32
2017-03-11T07:21:40.361Z,19.29
2017-03-11T07:22:50.396Z,19.32
2017-03-11T07:24:01.128Z,19.32
2017-03-11T07:25:12.000Z,19.34
2017-03-11T07:26:22.860Z,19.34
2017-03-11T07:27:33.825Z,19.24
2017-03-11T07:28:44.667Z,19.29
2017-03-11T07:29:55.060Z,19.3
2017-03-11T07:31:05.896Z,19.35
2017-03-11T07:32:16.347Z,19.27
2017-03-11T07:33:26.401Z,19.26
2017-03-11T07:34:36.902Z,19.3
2017-03-11T07:35:46.808Z,19.38
2017-03-11T07:36:57.293Z,19.32
2017-03-11T07:38:07.723Z,19.29
2017-03-11T07:39:18.622Z,19.3
2017-03-11T07:40:29.086Z,19.29
2017-03-11T07:41:40.218Z,19.35
2017-03-11T07:42:50.261Z,19.38
2017-03-11T07:44:00.711Z,19.35
2017-03-11T07:45:11.597Z,19.34
2017-03-11T07:46:21.652Z,19.26
2017-03-11T07:47:31.972Z,19.27
2017-03-11T07:48:42.429Z,19.32
2017-03-11T07:49:52.483Z,19.35
2017-03-11T07:51:02.961Z,19.35
2017-03-11T07:52:13.907Z,19.38
2017-03-11T07:53:25.028Z,19.42
2017-03-11T07:54:35.881Z,19.34
2017-03-11T07:55:46.744Z,19.32
2017-03-11T07:56:57.603Z,19.32
2017-03-11T07:58:08.474Z,19.37
2017-03-11T07:59:19.187Z,19.37
2017-03-11T08:00:29.271Z,19.37
2017-03-11T08:01:40.135Z,19.35
2017-03-11T08:02:49.781Z,19.34
2017-03-11T08:04:00.656Z,19.38
2017-03-11T08:05:11.405Z,19.38
2017-03-11T08:06:21.447Z,19.39
2017-03-11T08:07:31.485Z,19.32
2017-03-11T08:08:41.962Z,19.35
2017-03-11T08:09:52.698Z,19.35
2017-03-11T08:11:03.393Z,19.32
2017-03-11T08:12:13.837Z,19.37
2017-03-11T08:13:24.330Z,19.34
2017-03-11T08:14:34.810Z,19.37
2017-03-11T08:15:45.242Z,19.32
2017-03-11T08:16:55.929Z,19.41
2017-03-11T08:18:06.778Z,19.3
2017-03-11T08:19:17.670Z,19.35
2017-03-11T08:20:28.532Z,19.3
2017-03-11T08:21:38.564Z,19.39
2017-03-11T08:22:48.877Z,19.34
2017-03-11T08:23:58.069Z,19.37
2017-03-11T08:25:08.852Z,19.37
2017-03-11T08:26:19.226Z,19.39
2017-03-11T08:27:29.607Z,19.44
2017-03-11T08:28:40.195Z,19.35
2017-03-11T08:29:50.570Z,19.38
2017-03-11T08:31:01.299Z,19.38
2017-03-11T08:32:12.065Z,19.42
2017-03-11T08:33:22.426Z,19.48
2017-03-11T08:34:33.437Z,19.44
2017-03-11T08:35:43.783Z,19.34
2017-03-11T08:36:54.132Z,19.42
2017-03-11T08:38:04.901Z,19.48
2017-03-11T08:39:14.449Z,19.48
2017-03-11T08:40:24.673Z,19.48
2017-03-11T08:41:35.421Z,19.49
2017-03-11T08:42:45.802Z,19.41
2017-03-11T08:43:56.561Z,19.42
2017-03-11T08:45:06.917Z,19.45
2017-03-11T08:46:17.534Z,19.44
2017-03-11T08:47:27.876Z,19.44
2017-03-11T08:48:38.239Z,19.44
2017-03-11T08:49:48.186Z,19.49
2017-03-11T08:50:57.761Z,19.48
2017-03-11T08:52:08.395Z,19.42
2017-03-11T08:53:19.150Z,19.42
2017-03-11T08:54:28.320Z,19.48
2017-03-11T08:55:38.308Z,19.45
2017-03-11T08:56:49.044Z,19.44
2017-03-11T08:58:00.043Z,19.41
2017-03-11T08:59:10.798Z,19.48
2017-03-11T09:00:21.198Z,19.48
2017-03-11T09:01:31.578Z,19.47
2017-03-11T09:02:41.919Z,19.55
2017-03-11T09:03:52.913Z,19.38
2017-03-11T09:05:03.265Z,19.44
2017-03-11T09:06:13.633Z,19.49
2017-03-11T09:07:24.404Z,19.42
2017-03-11T09:08:34.753Z,19.42
2017-03-11T09:09:44.590Z,19.41
2017-03-11T09:10:55.363Z,19.47
2017-03-11T09:12:05.741Z,19.41
2017-03-11T09:13:16.116Z,19.47
2017-03-11T09:14:26.869Z,19.41
2017-03-11T09:15:37.965Z,19.38
2017-03-11T09:16:48.343Z,19.45
2017-03-11T09:17:59.098Z,19.48
2017-03-11T09:19:09.927Z,19.47
2017-03-11T09:20:20.291Z,19.49
2017-03-11T09:21:31.348Z,19.53
2017-03-11T09:22:42.107Z,19.42
2017-03-11T09:23:52.059Z,19.53
2017-03-11T09:25:02.814Z,19.49
2017-03-11T09:26:13.578Z,19.49
2017-03-11T09:27:24.254Z,19.56
2017-03-11T09:28:34.618Z,19.42
2017-03-11T09:29:45.390Z,19.53
2017-03-11T09:30:56.245Z,19.49
2017-03-11T09:32:07.027Z,19.53
2017-03-11T09:33:18.043Z,19.52
2017-03-11T09:34:28.400Z,19.55
2017-03-11T09:35:39.141Z,19.56
2017-03-11T09:36:49.485Z,19.55
2017-03-11T09:37:59.495Z,19.57
2017-03-11T09:39:10.555Z,19.56
2017-03-11T09:40:20.932Z,19.53
2017-03-11T09:41:31.700Z,19.56
2017-03-11T09:42:42.065Z,19.53
2017-03-11T09:43:52.426Z,19.53
2017-03-11T09:45:03.439Z,19.52
2017-03-11T09:46:14.191Z,19.55
2017-03-11T09:47:24.948Z,19.49
2017-03-11T09:48:34.501Z,19.55
2017-03-11T09:49:45.250Z,19.55
2017-03-11T09:50:55.863Z,19.55
2017-03-11T09:52:06.219Z,19.59
2017-03-11T09:53:16.581Z,19.47
2017-03-11T09:54:27.367Z,19.57
2017-03-11T09:55:37.335Z,19.55
2017-03-11T09:56:47.930Z,19.52
2017-03-11T09:57:58.705Z,19.59
2017-03-11T09:59:09.476Z,19.56
2017-03-11T10:00:19.827Z,19.56
2017-03-11T10:01:30.599Z,19.57
2017-03-11T10:02:41.225Z,19.56
2017-03-11T10:03:52.008Z,19.57
2017-03-11T10:05:02.385Z,19.6
2017-03-11T10:06:13.142Z,19.56
2017-03-11T10:07:23.895Z,19.6
2017-03-11T10:08:34.913Z,19.6
2017-03-11T10:09:45.676Z,19.6
2017-03-11T10:10:56.427Z,19.6
2017-03-11T10:12:07.201Z,19.55
2017-03-11T10:13:17.598Z,19.63
2017-03-11T10:14:28.212Z,19.56
2017-03-11T10:15:38.183Z,19.53
2017-03-11T10:16:48.586Z,19.62
2017-03-11T10:17:58.549Z,19.53
2017-03-11T10:19:09.301Z,19.63
2017-03-11T10:20:19.955Z,19.53
2017-03-11T10:21:30.340Z,19.56
2017-03-11T10:22:40.305Z,19.55
2017-03-11T10:23:50.666Z,19.6
2017-03-11T10:25:01.035Z,19.59
2017-03-11T10:26:11.250Z,19.64
2017-03-11T10:27:21.590Z,19.7
2017-03-11T10:28:31.922Z,19.63
2017-03-11T10:29:42.245Z,19.63
2017-03-11T10:30:51.845Z,19.63
2017-03-11T10:32:02.066Z,19.6
2017-03-11T10:33:12.388Z,19.56
2017-03-11T10:34:22.736Z,19.63
2017-03-11T10:35:33.454Z,19.64
2017-03-11T10:36:44.238Z,19.63
2017-03-11T10:37:54.826Z,19.62
2017-03-11T10:39:04.411Z,19.66
2017-03-11T10:40:14.373Z,19.63
2017-03-11T10:41:24.724Z,19.64
2017-03-11T10:42:35.084Z,19.63
2017-03-11T10:43:45.717Z,19.62
2017-03-11T10:44:55.653Z,19.62
2017-03-11T10:46:05.976Z,19.63
2017-03-11T10:47:16.301Z,19.62
2017-03-11T10:48:26.254Z,19.63
2017-03-11T10:49:36.824Z,19.62
2017-03-11T10:50:47.151Z,19.63
2017-03-11T10:51:56.713Z,19.7
2017-03-11T10:53:06.674Z,19.63
2017-03-11T10:54:16.220Z,19.67
2017-03-11T10:55:27.196Z,19.67
2017-03-11T10:56:36.335Z,19.66
2017-03-11T10:57:46.274Z,19.67
2017-03-11T10:58:57.007Z,19.7
2017-03-11T11:00:07.363Z,19.7
2017-03-11T11:01:17.950Z,19.67
2017-03-11T11:02:28.695Z,19.67
2017-03-11T11:03:39.431Z,19.64
2017-03-11T11:04:50.177Z,19.71
2017-03-11T11:06:00.512Z,19.66
2017-03-11T11:07:11.506Z,19.71
2017-03-11T11:08:22.249Z,19.72
2017-03-11T11:09:32.981Z,19.71
2017-03-11T11:10:43.330Z,19.7
2017-03-11T11:11:54.153Z,19.71
2017-03-11T11:13:04.342Z,19.7
2017-03-11T11:14:14.687Z,19.77
2017-03-11T11:15:24.244Z,19.71
2017-03-11T11:16:34.586Z,19.66
2017-03-11T11:17:45.305Z,19.7
2017-03-11T11:18:55.886Z,19.67
2017-03-11T11:20:05.863Z,19.72
2017-03-11T11:21:15.805Z,19.7
2017-03-11T11:22:25.741Z,19.66
2017-03-11T11:23:36.125Z,19.67
2017-03-11T11:24:46.708Z,19.66
2017-03-11T11:25:56.418Z,19.72
2017-03-11T11:27:06.761Z,19.7
2017-03-11T11:28:17.543Z,19.7
2017-03-11T11:29:27.911Z,19.74
2017-03-11T11:30:38.937Z,19.72
2017-03-11T11:31:49.744Z,19.66
2017-03-11T11:33:00.509Z,19.71
2017-03-11T11:34:10.890Z,19.67
2017-03-11T11:35:21.655Z,19.7
2017-03-11T11:36:32.295Z,19.7
2017-03-11T11:37:42.285Z,19.72
2017-03-11T11:38:53.050Z,19.7
2017-03-11T11:40:03.020Z,19.71
2017-03-11T11:41:13.416Z,19.7
2017-03-11T11:42:23.652Z,19.72
2017-03-11T11:43:33.662Z,19.75
2017-03-11T11:44:44.029Z,19.7
2017-03-11T11:45:54.391Z,19.66
2017-03-11T11:47:05.147Z,19.7
2017-03-11T11:48:15.755Z,19.7
2017-03-11T11:49:26.512Z,19.7
2017-03-11T11:50:37.292Z,19.72
2017-03-11T11:51:47.246Z,19.71
2017-03-11T11:52:57.999Z,19.84
2017-03-11T11:54:08.603Z,19.72
2017-03-11T11:55:18.571Z,19.72
2017-03-11T11:56:28.130Z,19.74
2017-03-11T11:57:38.888Z,19.66
2017-03-11T11:58:49.254Z,19.71
2017-03-11T11:59:59.864Z,19.67
2017-03-11T12:01:10.261Z,19.66
2017-03-11T12:02:20.674Z,19.72
2017-03-11T12:03:31.433Z,19.7
2017-03-11T12:04:41.798Z,19.7
2017-03-11T12:05:52.409Z,19.66
2017-03-11T12:07:03.185Z,19.67
2017-03-11T12:08:13.163Z,19.72
2017-03-11T12:09:23.516Z,19.7
2017-03-11T12:10:33.925Z,19.82
2017-03-11T12:11:44.517Z,19.67
2017-03-11T12:12:54.470Z,19.7
2017-03-11T12:14:05.218Z,19.71
2017-03-11T12:15:15.589Z,19.72
2017-03-11T12:16:26.368Z,19.7
2017-03-11T12:17:36.599Z,19.74
2017-03-11T12:18:46.610Z,19.82
2017-03-11T12:19:56.940Z,19.77
2017-03-11T12:21:07.298Z,19.74
2017-03-11T12:22:17.323Z,19.74
2017-03-11T12:23:27.951Z,19.72
2017-03-11T12:24:37.894Z,19.66
2017-03-11T12:25:48.267Z,19.74
2017-03-11T12:26:59.030Z,19.7
2017-03-11T12:28:09.388Z,19.81
2017-03-11T12:29:19.603Z,19.79
2017-03-11T12:30:30.342Z,19.74
2017-03-11T12:31:40.710Z,19.75
2017-03-11T12:32:51.087Z,19.71
2017-03-11T12:34:01.463Z,19.77
2017-03-11T12:35:12.164Z,19.78
2017-03-11T12:36:22.931Z,19.72
2017-03-11T12:37:33.362Z,19.67
2017-03-11T12:38:44.125Z,19.72
2017-03-11T12:39:54.882Z,19.67
2017-03-11T12:41:05.565Z,19.71
2017-03-11T12:42:16.313Z,19.78
2017-03-11T12:43:27.071Z,19.67
2017-03-11T12:44:37.421Z,19.75
2017-03-11T12:45:47.752Z,19.72
2017-03-11T12:46:58.374Z,19.7
2017-03-11T12:48:09.132Z,19.7
2017-03-11T12:49:19.079Z,19.78
2017-03-11T12:50:29.433Z,19.79
2017-03-11T12:51:38.998Z,19.85
2017-03-11T12:52:48.428Z,19.71
2017-03-11T12:53:58.380Z,19.77
2017-03-11T12:55:07.968Z,19.79
2017-03-11T12:56:18.309Z,19.72
2017-03-11T12:57:28.666Z,19.77
2017-03-11T12:58:38.880Z,19.7
2017-03-11T12:59:49.229Z,19.75
2017-03-11T13:00:59.253Z,19.81
2017-03-11T13:02:09.606Z,19.77
2017-03-11T13:03:19.960Z,19.84
2017-03-11T13:04:30.172Z,19.81
2017-03-11T13:05:40.147Z,19.85
2017-03-11T13:06:49.734Z,19.79
2017-03-11T13:07:59.280Z,19.78
2017-03-11T13:09:09.225Z,19.82
2017-03-11T13:10:24.388Z,19.81
2017-03-11T13:11:34.369Z,19.7
2017-03-11T13:12:44.700Z,19.78
2017-03-11T13:13:54.252Z,19.78
2017-03-11T13:15:04.191Z,19.81
2017-03-11T13:16:14.404Z,19.72
2017-03-11T13:17:25.169Z,19.75
2017-03-11T13:18:33.935Z,19.77
2017-03-11T13:19:44.263Z,19.78
2017-03-11T13:20:54.989Z,19.77
2017-03-11T13:22:05.634Z,19.82
2017-03-11T13:23:15.568Z,19.81
2017-03-11T13:24:26.307Z,19.79
2017-03-11T13:25:36.277Z,19.82
2017-03-11T13:26:46.247Z,19.74
2017-03-11T13:27:56.893Z,19.72
2017-03-11T13:29:07.243Z,19.78
2017-03-11T13:30:17.196Z,19.84
2017-03-11T13:31:27.925Z,19.72
2017-03-11T13:32:38.300Z,19.7
2017-03-11T13:33:48.927Z,19.71
2017-03-11T13:34:59.648Z,19.7
2017-03-11T13:36:09.998Z,19.78
2017-03-11T13:37:19.567Z,19.79
2017-03-11T13:38:29.109Z,19.81
2017-03-11T13:39:38.957Z,19.84
2017-03-11T13:40:48.521Z,19.84
2017-03-11T13:41:58.857Z,19.87
2017-03-11T13:43:09.192Z,19.78
2017-03-11T13:44:19.139Z,19.78
2017-03-11T13:45:29.785Z,19.78
2017-03-11T13:46:39.721Z,19.75
2017-03-11T13:47:50.064Z,19.75
2017-03-11T13:48:59.632Z,19.74
2017-03-11T13:50:09.625Z,19.79
2017-03-11T13:51:19.865Z,19.79
2017-03-11T13:52:30.711Z,19.75
2017-03-11T13:53:41.501Z,19.72
2017-03-11T13:54:52.278Z,19.72
2017-03-11T13:56:03.033Z,19.7
2017-03-11T13:57:13.652Z,19.82
2017-03-11T13:58:24.438Z,19.82
2017-03-11T13:59:34.416Z,19.71
2017-03-11T14:00:44.758Z,19.75
2017-03-11T14:01:54.341Z,19.71
2017-03-11T14:03:05.007Z,19.7
2017-03-11T14:04:15.369Z,19.67
2017-03-11T14:05:26.139Z,19.74
2017-03-11T14:06:36.905Z,19.66
2017-03-11T14:07:47.663Z,19.81
2017-03-11T14:08:58.678Z,19.77
2017-03-11T14:10:09.439Z,19.78
2017-03-11T14:11:20.222Z,19.7
2017-03-11T14:12:30.982Z,19.71
2017-03-11T14:13:41.751Z,19.67
2017-03-11T14:14:52.826Z,19.7
2017-03-11T14:16:03.192Z,19.81
2017-03-11T14:17:13.561Z,19.7
2017-03-11T14:18:24.331Z,19.72
2017-03-11T14:19:35.097Z,19.75
2017-03-11T14:20:46.238Z,19.81
2017-03-11T14:21:57.013Z,19.77
2017-03-11T14:23:07.375Z,19.72
2017-03-11T14:24:17.722Z,19.81
2017-03-11T14:25:28.070Z,19.72
2017-03-11T14:26:39.121Z,19.74
2017-03-11T14:27:49.085Z,19.78
2017-03-11T14:28:59.475Z,19.75
2017-03-11T14:30:10.259Z,19.79
2017-03-11T14:31:20.680Z,19.81
2017-03-11T14:32:31.343Z,19.66
2017-03-11T14:33:41.708Z,19.7
2017-03-11T14:34:52.057Z,19.81
2017-03-11T14:36:02.422Z,19.7
2017-03-11T14:37:13.174Z,19.67
2017-03-11T14:38:24.191Z,19.82
2017-03-11T14:39:34.591Z,19.72
2017-03-11T14:40:45.405Z,19.67
2017-03-11T14:41:55.791Z,19.77
2017-03-11T14:43:06.572Z,19.72
2017-03-11T14:44:17.628Z,19.72
2017-03-11T14:45:28.009Z,19.66
2017-03-11T14:46:38.400Z,19.72
2017-03-11T14:47:48.358Z,19.71
2017-03-11T14:48:59.139Z,19.67
2017-03-11T14:50:09.805Z,19.67
2017-03-11T14:51:20.182Z,19.72
2017-03-11T14:52:30.943Z,19.66
2017-03-11T14:53:41.708Z,19.71
2017-03-11T14:54:52.117Z,19.7
2017-03-11T14:56:02.707Z,19.71
2017-03-11T14:57:13.080Z,19.71
2017-03-11T14:58:23.849Z,19.75
2017-03-11T14:59:34.217Z,19.7
2017-03-11T15:00:44.963Z,19.77
2017-03-11T15:01:55.641Z,19.7
2017-03-11T15:03:06.397Z,19.7
2017-03-11T15:04:15.980Z,19.72
2017-03-11T15:05:26.750Z,19.74
2017-03-11T15:06:37.102Z,19.7
2017-03-11T15:07:48.218Z,19.67
2017-03-11T15:08:59.063Z,19.7
2017-03-11T15:10:09.461Z,19.72
2017-03-11T15:11:19.827Z,19.71